Doksany, Czech Republic

10:16 PM CET on December 19, 2014 (GMT +0100)
Ovocnarstvi Ploskovice, Petrasek | Change Station
CLOSE
Current Station
Personal Weather Station
Location: Ploskovice, Litomerice
Elevation: 810 ft
Nearby Weather Stations

Elev 810 ft 50.56 °N, 14.20 °E | Updated 55 seconds ago

Partly Cloudy
Partly Cloudy
46.1 °F
Feels Like 46 °F
N
1.0
Wind Variable Wind from West
Gusts 3.0 mph

Today
High -- | Low -- °F
--% Chance of Precip.
Yesterday
High -- | Low -- °F
Precip. -- in
8:00 AM 4:00 PM
Waning Crescent, 6% visible
Pressure 29.92 in
Visibility 6.2 miles
Clouds Few 4000 ft
Windchill 46 °F
Dew Point 42 °F
Humidity 84%
Rainfall 0.00 in
Snow Depth Not available.
UV 0 out of 12
Pollen Not available.
Air Quality Not available.
Flu Activity Not available.
METAR LKPR 192100Z 24011KT 9999 FEW040 07/04 Q1013 NOSIG

More Conditions Fewer Conditions

Pressure 29.92 in
Visibility 6.2 miles
Clouds Few 4000 ft
Windchill 46 °F
Dew Point 42 °F
Humidity 84%
Rainfall 0.00 in
Snow Depth Not available.
UV 0 out of 12
Pollen Not available.
Air Quality Not available.
Flu Activity Not available.
METAR LKPR 192100Z 24011KT 9999 FEW040 07/04 Q1013 NOSIG

More Conditions Fewer Conditions

10-Day Weather Forecast

Almanac

Astronomy

Dec. 19, 2014 Rise Set
Actual Time
Civil Twilight
Nautical Twilight
Astronomical Twilight
Moon
Length of Visible Light
Length of Day
Tomorrow will be .
, % of the Moon is Illuminated

Today's Extremes

Country Highs Country Lows

Community

WunderPhotos

Upload Photos

1,779,053 photos uploaded!

WunderBlogs® & News

Nearby

Air Quality

  Air Quality AQ Index Pollutant
Not available.

Snow Depth

Station Depth Elevation

Earthquake Activity

City Distance Mag. Time & Date
Minimum magnitude displayed is 2.5.

Coastal Water Temperatures

Place Temperature

Nearby Weather Stations